Tecumseh, Canada
Current Conditions -  °F | °C
As of 8:00 AM on Sunday 21 Dec 2014 (Local Time) from CYQG Reporting Station
Haze Haze  
Wind Chill: -5°   Ceiling: 26000
Heat Index: -5°   Visibility: 6mi
Dew Point: -6°   Wind: 2mph
Humidity: 93%   Direction: 150°SSE
Pressure: 30.31"   Gusts: NA
Location:  42.32°N, 82.89°W
Report Text: CYQG 211300Z 15002KT 6SM BR SCT035 BKN260 M05/M06 A3031 RMK SC3CI4 SLP274
Loading
Personal Weather Stations






























Interactive Weather Map New forecast layout! Learn more

10-Day Weather Forecast

Advertisements
Track Severe Weather on mobile